Time;durP1;ratioP1;P1;durP2;ratioP2;P2;SDS_P1;SDS_P2;PMS_P1;PMS_P2;Temp;Humidity;BMP_temperature;BMP_pressure;BME280_temperature;BME280_humidity;BME280_pressure;Samples;Min_cycle;Max_cycle;Signal;HPM_P1;HPM_P2
2021/04/29 00:00:44;;;;;;;13.17;9.00;;;11.70;93.10;;;;;;5097630;23;20454;-80
2021/04/29 00:02:47;;;;;;;13.00;9.10;;;11.70;93.00;;;;;;5097684;23;20462;-80
2021/04/29 00:04:49;;;;;;;16.30;9.87;;;11.70;93.20;;;;;;5097779;23;21031;-80
2021/04/29 00:06:51;;;;;;;14.67;9.80;;;11.70;93.00;;;;;;5106338;23;20506;-80
2021/04/29 00:08:52;;;;;;;10.83;9.03;;;11.60;93.30;;;;;;5098191;23;20454;-79
2021/04/29 00:11:27;;;;;;;14.07;8.70;;;11.60;93.50;;;;;;5097574;23;20484;-79
2021/04/29 00:13:29;;;;;;;13.30;8.90;;;11.60;93.70;;;;;;5106928;23;20421;-79
2021/04/29 00:15:31;;;;;;;10.90;9.40;;;11.50;93.80;;;;;;5097879;23;20465;-79
2021/04/29 00:17:33;;;;;;;10.40;8.80;;;11.40;94.10;;;;;;5097691;23;20788;-79
2021/04/29 00:19:35;;;;;;;10.53;9.37;;;11.50;94.00;;;;;;5097445;23;20505;-79
2021/04/29 00:21:38;;;;;;;12.63;9.37;;;11.40;94.40;;;;;;5097832;23;20460;-79
2021/04/29 00:23:39;;;;;;;11.20;8.63;;;11.30;94.90;;;;;;5104589;23;20855;-79
2021/04/29 00:25:41;;;;;;;12.10;10.03;;;11.30;95.00;;;;;;5106298;23;20478;-79
2021/04/29 00:27:44;;;;;;;11.20;9.97;;;11.30;95.00;;;;;;5104318;23;20450;-79
2021/04/29 00:29:49;;;;;;;12.37;9.60;;;11.20;95.20;;;;;;5105698;23;20427;-79
2021/04/29 00:31:51;;;;;;;13.27;9.80;;;11.20;95.40;;;;;;5105623;23;20503;-79
2021/04/29 00:33:53;;;;;;;9.97;8.97;;;11.20;95.70;;;;;;5105819;23;20447;-79
2021/04/29 00:35:55;;;;;;;10.13;8.83;;;11.20;96.10;;;;;;5105877;23;20466;-79
2021/04/29 00:37:57;;;;;;;13.70;9.37;;;11.00;96.40;;;;;;5106171;23;20450;-79
2021/04/29 00:39:59;;;;;;;10.73;9.63;;;11.00;96.90;;;;;;5097967;23;20541;-79
2021/04/29 00:42:01;;;;;;;9.93;8.93;;;11.00;97.10;;;;;;5097983;23;20482;-79
2021/04/29 00:44:05;;;;;;;15.60;9.67;;;10.90;98.00;;;;;;5098248;23;20458;-79
2021/04/29 00:46:12;;;;;;;11.73;9.53;;;11.00;98.10;;;;;;5097869;23;20546;-79
2021/04/29 00:48:15;;;;;;;14.47;9.83;;;11.00;98.30;;;;;;5105880;23;20529;-79
2021/04/29 00:50:20;;;;;;;12.83;9.50;;;10.90;98.30;;;;;;5100261;23;20459;-79
2021/04/29 00:52:22;;;;;;;11.93;9.70;;;10.80;98.30;;;;;;5099868;23;20498;-79
2021/04/29 00:54:23;;;;;;;11.93;10.67;;;10.80;98.30;;;;;;5106000;23;20429;-79
2021/04/29 00:56:25;;;;;;;13.47;9.53;;;10.80;98.30;;;;;;5097906;23;20459;-79
2021/04/29 00:58:27;;;;;;;17.93;10.67;;;10.80;98.30;;;;;;5098199;23;20429;-79
2021/04/29 01:00:34;;;;;;;13.23;10.10;;;10.70;98.30;;;;;;5097995;23;20497;-79
2021/04/29 01:02:49;;;;;;;16.50;8.97;;;10.80;98.30;;;;;;5098642;23;20433;-79
2021/04/29 01:04:56;;;;;;;13.70;10.70;;;10.90;98.30;;;;;;5107613;23;20446;-79
2021/04/29 01:07:01;;;;;;;13.93;10.40;;;10.80;98.30;;;;;;5108042;23;20455;-79
2021/04/29 01:09:09;;;;;;;13.10;10.50;;;10.80;98.30;;;;;;5099670;23;20429;-79
2021/04/29 01:11:15;;;;;;;11.63;10.37;;;10.70;98.30;;;;;;5099700;23;20986;-79
2021/04/29 01:13:21;;;;;;;14.50;10.13;;;10.60;98.30;;;;;;5100028;23;20518;-79
2021/04/29 01:15:24;;;;;;;14.87;10.63;;;10.60;98.30;;;;;;5100725;23;20465;-79
2021/04/29 01:17:28;;;;;;;13.87;10.10;;;10.70;98.30;;;;;;5106000;23;20929;-79
2021/04/29 01:19:40;;;;;;;17.80;11.33;;;10.80;98.30;;;;;;5101610;23;20582;-79
2021/04/29 01:21:43;;;;;;;13.17;10.27;;;10.70;98.30;;;;;;5108816;23;20506;-79
2021/04/29 01:23:56;;;;;;;16.43;10.77;;;10.70;98.30;;;;;;5109642;23;20469;-79
2021/04/29 01:26:00;;;;;;;13.60;11.10;;;10.60;98.30;;;;;;5101691;23;20484;-79
2021/04/29 01:28:03;;;;;;;13.50;10.70;;;10.50;98.30;;;;;;5102399;23;20787;-79
2021/04/29 01:30:08;;;;;;;13.43;10.70;;;10.50;98.30;;;;;;5109484;23;21000;-79
2021/04/29 01:32:11;;;;;;;14.20;10.17;;;10.70;98.30;;;;;;5098845;23;20489;-79
2021/04/29 01:34:16;;;;;;;15.30;11.83;;;10.60;98.30;;;;;;5106831;23;20773;-79
2021/04/29 01:36:20;;;;;;;12.47;11.07;;;10.40;98.30;;;;;;5098398;23;20429;-79
2021/04/29 01:38:22;;;;;;;11.10;9.97;;;10.20;98.30;;;;;;5097925;23;20501;-79
2021/04/29 01:40:24;;;;;;;14.23;11.40;;;10.20;98.30;;;;;;5105752;23;20446;-79
2021/04/29 01:42:26;;;;;;;12.87;10.70;;;10.10;98.30;;;;;;5105671;23;20433;-79
2021/04/29 01:44:30;;;;;;;14.93;10.90;;;10.10;98.30;;;;;;5097827;23;20433;-79
2021/04/29 01:46:33;;;;;;;14.43;10.97;;;10.20;98.30;;;;;;5104286;23;20471;-79
2021/04/29 01:48:35;;;;;;;16.10;10.03;;;10.10;98.30;;;;;;5103682;23;20429;-79
2021/04/29 01:50:38;;;;;;;16.77;12.27;;;10.00;98.30;;;;;;5096112;23;20458;-79
2021/04/29 01:52:40;;;;;;;14.00;11.70;;;9.90;98.30;;;;;;5104905;23;20454;-79
2021/04/29 01:54:42;;;;;;;13.00;11.60;;;10.00;98.30;;;;;;5104201;23;20465;-79
2021/04/29 01:56:45;;;;;;;16.93;12.80;;;10.00;98.30;;;;;;5104108;23;20459;-79
2021/04/29 01:58:47;;;;;;;12.47;11.17;;;9.90;98.30;;;;;;5094475;23;20455;-78
2021/04/29 02:00:50;;;;;;;15.50;12.93;;;9.80;98.30;;;;;;5102083;23;20429;-78
2021/04/29 02:02:52;;;;;;;12.70;11.40;;;9.90;98.30;;;;;;5092140;23;20463;-78
2021/04/29 02:04:55;;;;;;;16.70;13.27;;;9.90;98.30;;;;;;5101230;23;20486;-78
2021/04/29 02:06:59;;;;;;;14.43;12.10;;;9.90;98.30;;;;;;5103903;23;20451;-78
2021/04/29 02:09:01;;;;;;;14.03;11.10;;;9.80;98.30;;;;;;5103652;23;20451;-78
2021/04/29 02:11:04;;;;;;;16.20;11.70;;;9.70;98.30;;;;;;5102933;23;20766;-78
2021/04/29 02:13:10;;;;;;;14.73;11.07;;;9.90;98.30;;;;;;5096004;23;20492;-78
2021/04/29 02:15:14;;;;;;;15.23;11.90;;;10.00;98.30;;;;;;5096224;23;20440;-79
2021/04/29 02:17:27;;;;;;;14.63;12.07;;;10.00;98.30;;;;;;5105406;23;20508;-78
2021/04/29 02:19:30;;;;;;;18.90;12.53;;;10.10;98.30;;;;;;5096422;23;20818;-78
2021/04/29 02:21:33;;;;;;;14.53;12.27;;;10.00;98.30;;;;;;5104629;23;20464;-78
2021/04/29 02:23:35;;;;;;;16.00;12.40;;;9.90;98.30;;;;;;5097198;23;20486;-78
2021/04/29 02:25:39;;;;;;;16.73;11.90;;;9.90;98.30;;;;;;5098296;23;20461;-78
2021/04/29 02:27:41;;;;;;;16.27;12.40;;;10.00;98.30;;;;;;5097328;23;20451;-77
2021/04/29 02:29:44;;;;;;;17.63;12.40;;;10.10;98.30;;;;;;5104154;23;20451;-78
2021/04/29 02:31:47;;;;;;;14.00;12.53;;;10.10;98.30;;;;;;5104080;23;20470;-78
2021/04/29 02:33:50;;;;;;;13.73;12.20;;;10.10;98.30;;;;;;5096960;23;20430;-78
2021/04/29 02:35:52;;;;;;;15.50;12.60;;;9.90;98.30;;;;;;5103690;23;21000;-78
2021/04/29 02:37:55;;;;;;;13.53;11.83;;;9.80;98.30;;;;;;5096071;23;20440;-78
2021/04/29 02:39:57;;;;;;;13.60;11.73;;;9.90;98.30;;;;;;5103785;23;20451;-78
2021/04/29 02:41:59;;;;;;;19.17;13.50;;;9.90;98.30;;;;;;5094385;23;20437;-78
2021/04/29 02:44:03;;;;;;;17.50;14.47;;;9.90;98.30;;;;;;5094957;23;20460;-78
2021/04/29 02:46:05;;;;;;;15.50;13.50;;;9.90;98.30;;;;;;5094050;23;20426;-78
2021/04/29 02:48:10;;;;;;;14.50;12.70;;;9.70;98.30;;;;;;5102435;23;20524;-78
2021/04/29 02:50:15;;;;;;;14.97;11.47;;;9.80;98.30;;;;;;5102098;23;20457;-78
2021/04/29 02:52:18;;;;;;;14.90;13.10;;;9.90;98.30;;;;;;5094046;23;20461;-78
2021/04/29 02:54:22;;;;;;;16.37;12.83;;;9.90;98.30;;;;;;5101834;23;20431;-78
2021/04/29 02:56:24;;;;;;;17.80;13.07;;;9.90;98.30;;;;;;5103935;23;20469;-78
2021/04/29 02:58:26;;;;;;;15.77;12.47;;;10.00;98.30;;;;;;5103739;23;20422;-78
2021/04/29 03:00:29;;;;;;;19.07;12.87;;;10.00;98.30;;;;;;5092480;23;20435;-78
2021/04/29 03:02:31;;;;;;;16.80;13.23;;;10.00;98.30;;;;;;5095160;23;20519;-78
2021/04/29 03:04:33;;;;;;;15.83;11.80;;;10.00;98.30;;;;;;5095019;23;20437;-78
2021/04/29 03:06:36;;;;;;;16.23;11.43;;;10.00;98.30;;;;;;5092983;23;20458;-77
2021/04/29 03:08:38;;;;;;;16.57;12.10;;;10.00;98.30;;;;;;5090024;23;20432;-77
2021/04/29 03:10:40;;;;;;;14.53;12.33;;;9.90;98.30;;;;;;5090255;23;20775;-77
2021/04/29 03:12:42;;;;;;;19.10;15.97;;;10.00;98.30;;;;;;5099106;23;20446;-78
2021/04/29 03:14:44;;;;;;;25.57;19.60;;;10.10;98.30;;;;;;5095870;23;20429;-78
2021/04/29 03:16:45;;;;;;;21.50;14.77;;;10.10;98.30;;;;;;5103084;23;20446;-78
2021/04/29 03:18:47;;;;;;;14.03;12.53;;;10.10;98.30;;;;;;5096156;23;20457;-79
2021/04/29 03:23:01;;;;;;;14.07;12.30;;;10.20;98.30;;;;;;5090134;23;20429;-83
2021/04/29 03:25:08;;;;;;;20.40;15.23;;;10.20;98.30;;;;;;5094877;23;20454;-82
2021/04/29 03:27:10;;;;;;;30.10;17.77;;;10.30;98.30;;;;;;5095022;23;20429;-83
2021/04/29 03:29:12;;;;;;;15.07;12.70;;;10.30;98.30;;;;;;5095899;23;20483;-82
2021/04/29 03:31:14;;;;;;;17.23;13.70;;;10.40;98.30;;;;;;5096587;23;20469;-82
2021/04/29 03:33:16;;;;;;;16.30;12.20;;;10.30;98.30;;;;;;5095643;23;20461;-83
2021/04/29 03:35:18;;;;;;;16.60;14.40;;;10.30;98.30;;;;;;5103545;23;20454;-83
2021/04/29 03:37:24;;;;;;;15.03;13.50;;;10.30;98.30;;;;;;5103489;23;20428;-82
2021/04/29 03:39:26;;;;;;;17.23;12.10;;;10.20;98.30;;;;;;5103276;23;20431;-80
2021/04/29 03:41:28;;;;;;;14.60;12.40;;;10.20;98.30;;;;;;5096350;23;20576;-83
2021/04/29 03:43:30;;;;;;;18.53;13.23;;;10.10;98.30;;;;;;5095834;23;20439;-80
2021/04/29 03:45:33;;;;;;;21.00;13.93;;;10.00;98.30;;;;;;5095482;23;20458;-83
2021/04/29 03:47:37;;;;;;;15.43;13.67;;;9.90;98.30;;;;;;5094806;23;20491;-80
2021/04/29 03:49:40;;;;;;;15.40;13.13;;;10.00;98.30;;;;;;5102100;23;20454;-81
2021/04/29 03:51:41;;;;;;;16.77;13.10;;;10.00;98.30;;;;;;5094980;23;20664;-83
2021/04/29 03:53:43;;;;;;;15.73;13.43;;;10.10;98.30;;;;;;5095928;23;20500;-84
2021/04/29 03:55:46;;;;;;;17.03;14.77;;;10.10;98.30;;;;;;5095054;23;20471;-83
2021/04/29 03:57:48;;;;;;;16.40;13.97;;;10.10;98.30;;;;;;5095050;23;20457;-82
2021/04/29 03:59:50;;;;;;;15.90;14.17;;;10.00;98.30;;;;;;5094674;23;20490;-82
2021/04/29 04:01:52;;;;;;;15.57;14.00;;;10.00;98.30;;;;;;5095565;23;20435;-82
2021/04/29 04:03:55;;;;;;;18.10;16.20;;;9.70;98.30;;;;;;5093577;23;20444;-82
2021/04/29 04:06:00;;;;;;;15.43;13.60;;;9.80;98.30;;;;;;5093749;23;20534;-83
2021/04/29 04:08:02;;;;;;;18.63;14.47;;;9.90;98.30;;;;;;5094691;23;20432;-83
2021/04/29 04:10:05;;;;;;;19.43;13.80;;;9.90;98.30;;;;;;5094574;23;20821;-83
2021/04/29 04:12:08;;;;;;;17.17;14.70;;;9.90;98.30;;;;;;5104021;23;20426;-83
2021/04/29 04:14:13;;;;;;;16.20;14.30;;;9.90;98.30;;;;;;5093472;23;20987;-82
2021/04/29 04:16:15;;;;;;;15.93;13.70;;;10.00;98.30;;;;;;5095233;23;20461;-82
2021/04/29 04:18:17;;;;;;;21.03;14.20;;;10.00;98.30;;;;;;5094424;23;20455;-84
2021/04/29 04:20:20;;;;;;;21.00;14.40;;;10.10;98.30;;;;;;5105092;23;21000;-83
2021/04/29 04:22:22;;;;;;;17.10;14.37;;;10.10;98.30;;;;;;5095141;23;20532;-82
2021/04/29 04:24:24;;;;;;;17.70;15.80;;;10.10;98.30;;;;;;5095737;23;20522;-82
2021/04/29 04:26:26;;;;;;;21.10;14.53;;;10.00;98.30;;;;;;5103187;23;20451;-82
2021/04/29 04:28:28;;;;;;;16.40;14.60;;;10.00;98.30;;;;;;5094836;23;20812;-81
2021/04/29 04:30:31;;;;;;;15.83;14.23;;;10.00;98.30;;;;;;5095785;23;20817;-84
2021/04/29 04:32:33;;;;;;;18.57;14.37;;;10.00;98.30;;;;;;5096595;23;20425;-83
2021/04/29 04:34:35;;;;;;;16.57;14.33;;;9.90;98.30;;;;;;5096424;23;20489;-82
2021/04/29 04:36:37;;;;;;;16.30;14.33;;;9.80;98.30;;;;;;5095383;23;20955;-83
2021/04/29 04:38:39;;;;;;;18.63;15.03;;;9.80;98.30;;;;;;5102509;23;20464;-83
2021/04/29 04:40:46;;;;;;;17.60;14.27;;;9.90;98.30;;;;;;5096018;23;20952;-81
2021/04/29 04:42:50;;;;;;;18.97;14.63;;;10.00;98.30;;;;;;5095441;23;20454;-82
2021/04/29 04:44:53;;;;;;;17.60;15.10;;;10.00;98.30;;;;;;5095881;23;20466;-82
2021/04/29 04:46:55;;;;;;;20.23;15.70;;;9.90;98.30;;;;;;5095154;23;20541;-83
2021/04/29 04:48:57;;;;;;;19.23;14.70;;;9.90;98.30;;;;;;5094948;23;20941;-82
2021/04/29 04:50:59;;;;;;;21.13;16.03;;;9.90;98.30;;;;;;5104053;23;20422;-82
2021/04/29 04:53:01;;;;;;;23.60;15.83;;;10.00;98.30;;;;;;5102612;23;20744;-82
2021/04/29 04:55:04;;;;;;;20.03;15.97;;;9.80;98.30;;;;;;5092328;23;20534;-83
2021/04/29 04:57:08;;;;;;;18.20;14.97;;;9.90;98.30;;;;;;5093133;23;20948;-81
2021/04/29 04:59:10;;;;;;;18.27;15.23;;;9.80;98.30;;;;;;5093477;23;20468;-81
2021/04/29 05:01:13;;;;;;;18.70;15.20;;;9.80;98.30;;;;;;5103720;23;20432;-82
2021/04/29 05:03:16;;;;;;;16.93;15.17;;;9.80;98.30;;;;;;5094661;23;20524;-83
2021/04/29 05:05:23;;;;;;;18.00;15.80;;;9.80;98.30;;;;;;5093879;23;20461;-81
2021/04/29 05:07:25;;;;;;;22.67;15.57;;;9.80;98.30;;;;;;5103120;23;20454;-82
2021/04/29 05:09:27;;;;;;;19.73;16.27;;;9.80;98.30;;;;;;5094268;23;20426;-81
2021/04/29 05:11:29;;;;;;;23.40;16.10;;;9.90;98.30;;;;;;5095757;23;20433;-81
2021/04/29 05:13:31;;;;;;;21.37;16.10;;;10.00;98.30;;;;;;5096532;23;20835;-82
2021/04/29 05:15:35;;;;;;;19.10;17.20;;;10.00;98.30;;;;;;5094593;23;20934;-82
2021/04/29 05:17:38;;;;;;;18.93;15.43;;;10.10;98.30;;;;;;5094165;23;20454;-82
2021/04/29 05:19:40;;;;;;;17.70;15.80;;;10.10;98.30;;;;;;5095513;23;20966;-83
2021/04/29 05:21:42;;;;;;;19.77;16.90;;;10.10;98.30;;;;;;5103629;23;20750;-82
2021/04/29 05:23:46;;;;;;;20.17;14.80;;;9.80;98.30;;;;;;5101810;23;20491;-83
2021/04/29 05:25:49;;;;;;;20.80;17.53;;;9.80;98.30;;;;;;5102171;23;20451;-82
2021/04/29 05:27:52;;;;;;;19.03;17.00;;;9.80;98.30;;;;;;5094248;23;20464;-82
2021/04/29 05:29:54;;;;;;;19.60;16.60;;;10.00;98.30;;;;;;5103041;23;20425;-82
2021/04/29 05:31:56;;;;;;;18.70;15.53;;;10.00;98.30;;;;;;5103495;23;20425;-82
2021/04/29 05:33:59;;;;;;;21.73;16.23;;;9.90;98.30;;;;;;5103074;23;20425;-83
2021/04/29 05:36:01;;;;;;;22.27;17.00;;;9.90;98.30;;;;;;5094465;23;20545;-82
2021/04/29 05:38:03;;;;;;;20.27;16.87;;;10.00;98.30;;;;;;5093853;23;20497;-81
2021/04/29 05:40:06;;;;;;;24.07;16.20;;;10.00;98.30;;;;;;5101299;23;20465;-82
2021/04/29 05:42:08;;;;;;;21.10;17.80;;;10.10;98.30;;;;;;5102649;23;20454;-82
2021/04/29 05:44:10;;;;;;;21.13;17.40;;;10.10;98.30;;;;;;5094193;23;20519;-82
2021/04/29 05:46:12;;;;;;;18.80;16.73;;;10.00;98.30;;;;;;5094315;23;20458;-81
2021/04/29 05:48:14;;;;;;;20.10;17.63;;;9.90;98.30;;;;;;5093869;23;20537;-82
2021/04/29 05:50:17;;;;;;;20.03;16.20;;;10.00;98.30;;;;;;5094440;23;20479;-82
2021/04/29 05:52:19;;;;;;;18.93;15.60;;;10.00;98.30;;;;;;5095121;23;20490;-83
2021/04/29 05:54:21;;;;;;;22.30;18.07;;;10.00;98.30;;;;;;5103206;23;20454;-81
2021/04/29 05:56:23;;;;;;;48.50;27.93;;;10.00;98.30;;;;;;5093425;23;20436;-81
2021/04/29 05:58:25;;;;;;;23.57;19.30;;;10.10;98.30;;;;;;5100977;23;20896;-81
2021/04/29 06:00:27;;;;;;;18.27;16.40;;;10.10;98.30;;;;;;5101625;23;20478;-82
2021/04/29 06:02:29;;;;;;;20.60;17.90;;;10.20;98.30;;;;;;5095040;23;20486;-82
2021/04/29 06:04:31;;;;;;;22.63;18.40;;;10.30;98.30;;;;;;5096019;23;20790;-82
2021/04/29 06:06:34;;;;;;;17.63;15.67;;;10.40;98.30;;;;;;5101918;23;20530;-82
2021/04/29 06:08:36;;;;;;;21.83;18.23;;;10.40;98.30;;;;;;5094091;23;20433;-82
2021/04/29 06:10:38;;;;;;;18.93;16.87;;;10.40;98.30;;;;;;5094329;23;20453;-81
2021/04/29 06:12:42;;;;;;;23.90;19.50;;;10.40;98.30;;;;;;5103618;23;20490;-81
2021/04/29 06:14:44;;;;;;;28.10;20.67;;;10.30;98.30;;;;;;5095660;23;20461;-83
2021/04/29 06:16:46;;;;;;;19.67;17.33;;;10.30;98.30;;;;;;5095658;23;20483;-83
2021/04/29 06:18:48;;;;;;;20.30;18.10;;;10.30;98.30;;;;;;5103006;23;20526;-82
2021/04/29 06:20:50;;;;;;;19.87;16.13;;;10.40;98.30;;;;;;5103951;23;20461;-82
2021/04/29 06:22:53;;;;;;;20.23;18.03;;;10.40;98.30;;;;;;5093600;23;20575;-82
2021/04/29 06:24:55;;;;;;;36.53;25.23;;;10.40;98.30;;;;;;5104570;23;20538;-83
2021/04/29 06:27:00;;;;;;;22.70;18.40;;;10.40;98.30;;;;;;5096118;23;20461;-83
2021/04/29 06:29:03;;;;;;;20.83;18.67;;;10.50;98.30;;;;;;5095616;23;20458;-84
2021/04/29 06:31:05;;;;;;;24.53;19.50;;;10.50;98.30;;;;;;5102648;23;21007;-82
2021/04/29 06:33:07;;;;;;;22.97;18.77;;;10.60;98.30;;;;;;5094065;23;20772;-83
2021/04/29 06:35:11;;;;;;;24.93;20.03;;;10.60;98.30;;;;;;5103948;23;20535;-81
2021/04/29 06:37:14;;;;;;;24.90;19.60;;;10.60;98.30;;;;;;5103891;23;20422;-82
2021/04/29 06:39:19;;;;;;;27.00;19.87;;;10.50;98.30;;;;;;5104086;23;20461;-83
2021/04/29 06:41:21;;;;;;;21.13;18.30;;;10.60;98.30;;;;;;5094463;23;20809;-83
2021/04/29 06:43:23;;;;;;;24.60;19.07;;;10.60;98.30;;;;;;5094152;23;20460;-83
2021/04/29 06:45:25;;;;;;;23.27;19.23;;;10.70;98.30;;;;;;5102097;23;20458;-83
2021/04/29 06:47:31;;;;;;;21.70;19.13;;;10.70;98.30;;;;;;5103761;23;20447;-83
2021/04/29 06:49:34;;;;;;;24.03;20.50;;;10.70;98.30;;;;;;5103783;23;20999;-84
2021/04/29 06:51:35;;;;;;;24.03;19.60;;;10.60;98.30;;;;;;5094571;23;20493;-83
2021/04/29 06:53:39;;;;;;;24.90;19.80;;;10.50;98.30;;;;;;5094884;23;20451;-83
2021/04/29 06:55:42;;;;;;;22.63;20.23;;;10.30;98.30;;;;;;5094067;23;20458;-82
2021/04/29 06:57:44;;;;;;;22.13;18.60;;;10.10;98.30;;;;;;5094463;23;20433;-82
2021/04/29 06:59:45;;;;;;;26.80;20.63;;;10.10;98.30;;;;;;5094455;23;20470;-82
2021/04/29 07:01:47;;;;;;;24.93;20.33;;;10.10;98.30;;;;;;5093841;23;20453;-82
2021/04/29 07:03:49;;;;;;;22.10;19.43;;;10.00;98.30;;;;;;5095122;23;20433;-81
2021/04/29 07:05:52;;;;;;;25.53;19.93;;;9.90;98.30;;;;;;5102990;23;20536;-81
2021/04/29 07:07:55;;;;;;;25.60;21.80;;;9.90;98.30;;;;;;5090283;23;20515;-79
2021/04/29 07:09:57;;;;;;;22.47;18.57;;;9.50;98.30;;;;;;5089571;23;20454;-82
2021/04/29 07:12:00;;;;;;;22.40;19.47;;;9.50;98.30;;;;;;5085758;23;20540;-80
2021/04/29 07:14:03;;;;;;;26.40;19.33;;;9.50;98.30;;;;;;5095551;23;20425;-80
2021/04/29 07:16:06;;;;;;;24.80;19.90;;;9.60;98.30;;;;;;5086957;23;20471;-82
2021/04/29 07:18:12;;;;;;;24.50;19.57;;;9.60;98.30;;;;;;5087672;23;20445;-83
2021/04/29 07:20:14;;;;;;;24.27;20.13;;;9.50;98.30;;;;;;5095088;23;20461;-82
2021/04/29 07:22:16;;;;;;;24.80;20.10;;;9.60;98.30;;;;;;5087685;23;20463;-79
2021/04/29 07:24:18;;;;;;;24.20;20.10;;;9.50;98.30;;;;;;5084971;23;20463;-80
2021/04/29 07:26:20;;;;;;;25.97;20.80;;;9.70;98.30;;;;;;5087102;23;20488;-81
2021/04/29 07:28:24;;;;;;;22.70;19.90;;;9.90;98.30;;;;;;5087585;23;20448;-80
2021/04/29 07:30:27;;;;;;;24.33;20.23;;;9.80;98.30;;;;;;5095756;23;20429;-83
2021/04/29 07:32:29;;;;;;;25.13;21.00;;;9.90;98.30;;;;;;5088394;23;21097;-79
2021/04/29 07:34:31;;;;;;;23.57;19.10;;;9.90;98.30;;;;;;5088120;23;20451;-79
2021/04/29 07:36:33;;;;;;;23.00;19.70;;;9.90;98.30;;;;;;5087821;23;20429;-80
2021/04/29 07:38:35;;;;;;;24.37;19.83;;;9.90;98.30;;;;;;5088349;23;20432;-83
2021/04/29 07:40:37;;;;;;;25.10;20.00;;;9.90;98.30;;;;;;5088639;23;20516;-85
2021/04/29 07:42:39;;;;;;;28.57;20.43;;;9.90;98.30;;;;;;5088153;23;20436;-83
2021/04/29 07:44:42;;;;;;;24.70;20.83;;;9.90;98.30;;;;;;5087499;23;20433;-84
2021/04/29 07:46:44;;;;;;;29.87;21.80;;;9.70;98.30;;;;;;5088753;23;20956;-82
2021/04/29 07:48:46;;;;;;;24.30;19.63;;;9.60;98.30;;;;;;5096537;23;20485;-80
2021/04/29 07:50:48;;;;;;;27.57;21.90;;;9.60;98.30;;;;;;5088263;23;20429;-83
2021/04/29 07:52:50;;;;;;;27.60;21.40;;;9.80;98.30;;;;;;5088644;23;20425;-83
2021/04/29 07:54:52;;;;;;;26.07;19.57;;;9.80;98.30;;;;;;5087922;23;20492;-79
2021/04/29 07:56:54;;;;;;;23.40;20.90;;;9.70;98.30;;;;;;5088411;23;20573;-81
2021/04/29 07:58:57;;;;;;;24.30;20.80;;;9.80;98.30;;;;;;5095858;23;20812;-79
2021/04/29 08:00:59;;;;;;;24.40;20.50;;;9.90;98.30;;;;;;5087864;23;20464;-81
2021/04/29 08:03:01;;;;;;;28.97;20.10;;;9.90;98.30;;;;;;5088507;23;20437;-80
2021/04/29 08:05:05;;;;;;;24.53;20.60;;;9.90;98.30;;;;;;5096161;23;21406;-80
2021/04/29 08:07:07;;;;;;;23.93;21.00;;;9.90;98.30;;;;;;5096138;23;20438;-81
2021/04/29 08:09:10;;;;;;;24.23;20.70;;;10.10;98.30;;;;;;5088308;23;20454;-79
2021/04/29 08:11:18;;;;;;;26.43;21.70;;;10.10;98.30;;;;;;5087954;23;20910;-81
2021/04/29 08:13:23;;;;;;;27.17;21.90;;;10.00;98.30;;;;;;5095330;23;20920;-81
2021/04/29 08:15:25;;;;;;;28.87;20.77;;;10.00;98.30;;;;;;5089883;23;20454;-81
2021/04/29 08:17:28;;;;;;;25.77;21.50;;;9.90;98.30;;;;;;5089314;23;20456;-81
2021/04/29 08:19:31;;;;;;;25.73;21.63;;;10.20;98.30;;;;;;5090206;23;20537;-83
2021/04/29 08:21:33;;;;;;;25.23;21.27;;;10.30;98.30;;;;;;5097976;23;20451;-82
2021/04/29 08:23:35;;;;;;;28.00;22.70;;;10.30;98.30;;;;;;5089164;23;20762;-82
2021/04/29 08:25:38;;;;;;;28.47;21.90;;;10.30;98.30;;;;;;5090602;23;21110;-79
2021/04/29 08:27:40;;;;;;;26.30;22.00;;;10.20;98.30;;;;;;5090615;23;20436;-80
2021/04/29 08:29:42;;;;;;;28.73;22.30;;;10.20;98.30;;;;;;5090940;23;20470;-79
2021/04/29 08:31:52;;;;;;;27.57;23.03;;;10.10;98.30;;;;;;5090606;23;21008;-79
2021/04/29 08:33:56;;;;;;;26.63;21.57;;;10.30;98.30;;;;;;5100301;23;20417;-81
2021/04/29 08:36:16;;;;;;;29.07;22.73;;;10.30;98.30;;;;;;5092051;23;20468;-81
2021/04/29 08:38:17;;;;;;;25.27;21.43;;;10.30;98.30;;;;;;5091272;23;20429;-81
2021/04/29 08:40:21;;;;;;;27.73;23.10;;;10.40;98.30;;;;;;5091145;23;20429;-81
2021/04/29 08:42:26;;;;;;;26.43;22.33;;;10.40;98.30;;;;;;5090361;23;20433;-80
2021/04/29 08:44:30;;;;;;;30.03;22.23;;;10.20;98.30;;;;;;5090782;23;20766;-81
2021/04/29 08:46:33;;;;;;;26.37;22.60;;;10.30;98.30;;;;;;5089975;23;20455;-79
2021/04/29 08:48:35;;;;;;;30.03;23.87;;;10.30;98.30;;;;;;5090321;23;20835;-79
2021/04/29 08:50:41;;;;;;;26.07;22.50;;;10.60;98.30;;;;;;5090413;23;20865;-80
2021/04/29 08:52:43;;;;;;;30.20;22.90;;;10.70;98.30;;;;;;5090457;23;20454;-80
2021/04/29 08:54:51;;;;;;;29.47;24.00;;;10.80;98.30;;;;;;5089823;23;20451;-80
2021/04/29 08:56:55;;;;;;;28.53;22.67;;;10.90;98.30;;;;;;5090047;23;20549;-80
2021/04/29 08:58:59;;;;;;;27.60;22.07;;;10.90;98.30;;;;;;5098406;23;20863;-80
2021/04/29 09:01:03;;;;;;;29.07;22.97;;;10.90;98.30;;;;;;5097610;23;20421;-80
2021/04/29 09:03:10;;;;;;;29.37;25.00;;;10.90;98.30;;;;;;5098724;23;20497;-80
2021/04/29 09:05:14;;;;;;;29.77;22.83;;;10.90;98.30;;;;;;5089985;23;20944;-80
2021/04/29 09:07:21;;;;;;;25.90;22.27;;;10.90;98.30;;;;;;5090036;23;21288;-81
2021/04/29 09:09:26;;;;;;;27.80;23.77;;;11.00;98.30;;;;;;5097669;23;20989;-80
2021/04/29 09:11:28;;;;;;;28.80;25.70;;;11.00;98.30;;;;;;5097487;23;20458;-80
2021/04/29 09:13:30;;;;;;;29.13;23.63;;;11.10;98.30;;;;;;5096522;23;20451;-83
2021/04/29 09:15:35;;;;;;;31.80;25.90;;;11.10;98.30;;;;;;5089408;23;20487;-81
2021/04/29 09:17:37;;;;;;;26.43;23.63;;;11.10;98.30;;;;;;5089102;23;20484;-83
2021/04/29 09:19:47;;;;;;;26.13;23.30;;;11.20;98.30;;;;;;5088420;23;20928;-82
2021/04/29 09:21:54;;;;;;;26.70;22.80;;;11.10;98.30;;;;;;5089583;23;20454;-81
2021/04/29 09:23:56;;;;;;;28.43;23.77;;;11.00;98.30;;;;;;5098006;23;20469;-80
2021/04/29 09:26:00;;;;;;;32.80;26.60;;;11.00;98.30;;;;;;5084686;23;20461;-81
2021/04/29 09:28:02;;;;;;;34.10;28.50;;;11.10;98.30;;;;;;5090642;23;20465;-81
2021/04/29 09:30:06;;;;;;;36.50;30.10;;;11.00;98.30;;;;;;5091728;23;20469;-80
2021/04/29 09:32:08;;;;;;;29.60;24.03;;;10.90;98.30;;;;;;5091358;23;20960;-80
2021/04/29 09:34:11;;;;;;;28.07;24.43;;;11.10;98.30;;;;;;5091297;23;20561;-81
2021/04/29 09:36:24;;;;;;;27.77;23.83;;;11.20;98.30;;;;;;5091708;23;20429;-81
2021/04/29 09:38:38;;;;;;;27.73;24.67;;;11.20;98.30;;;;;;5099663;23;20487;-81
2021/04/29 09:40:44;;;;;;;30.37;22.00;;;11.30;98.30;;;;;;5090738;23;20425;-81
2021/04/29 09:42:47;;;;;;;30.33;22.53;;;11.20;98.30;;;;;;5099364;23;20511;-80
2021/04/29 09:44:51;;;;;;;27.87;22.40;;;11.20;98.30;;;;;;5099356;23;20795;-81
2021/04/29 09:46:55;;;;;;;26.07;22.30;;;11.10;98.30;;;;;;5100119;23;20446;-80
2021/04/29 09:48:57;;;;;;;29.17;23.20;;;11.00;98.30;;;;;;5091462;23;20510;-81
2021/04/29 09:51:24;;;;;;;28.60;23.10;;;11.00;98.30;;;;;;5091706;23;20465;-81
2021/04/29 09:53:41;;;;;;;27.80;20.90;;;11.00;98.30;;;;;;5099345;23;20534;-82
2021/04/29 09:55:45;;;;;;;28.43;22.40;;;10.90;98.30;;;;;;5091150;23;20959;-82
2021/04/29 09:57:48;;;;;;;30.33;22.80;;;11.00;98.30;;;;;;5091475;23;20455;-82
2021/04/29 09:59:55;;;;;;;28.60;22.03;;;11.10;98.30;;;;;;5093873;23;20434;-82
2021/04/29 10:01:58;;;;;;;30.47;22.07;;;11.20;98.30;;;;;;5094731;23;20776;-82
2021/04/29 10:04:00;;;;;;;26.80;21.40;;;11.30;98.30;;;;;;5094338;23;20469;-82
2021/04/29 10:06:02;;;;;;;31.20;23.63;;;11.30;98.30;;;;;;5094448;23;20455;-82
2021/04/29 10:08:05;;;;;;;24.50;21.43;;;11.30;98.30;;;;;;5094965;23;20450;-82
2021/04/29 10:10:08;;;;;;;25.93;22.63;;;11.20;98.30;;;;;;5094669;23;20479;-82
2021/04/29 10:12:12;;;;;;;27.77;22.43;;;11.30;98.30;;;;;;5103224;23;20455;-83
2021/04/29 10:14:17;;;;;;;29.10;23.33;;;11.40;98.30;;;;;;5102093;23;20936;-82
2021/04/29 10:16:22;;;;;;;39.47;28.20;;;11.30;98.30;;;;;;5093779;23;20516;-81
2021/04/29 10:18:25;;;;;;;27.53;21.23;;;11.30;98.30;;;;;;5094292;23;20785;-83
2021/04/29 10:20:30;;;;;;;24.90;20.57;;;11.30;98.30;;;;;;5103896;23;20958;-82
2021/04/29 10:22:32;;;;;;;25.67;21.67;;;11.30;98.30;;;;;;5095079;23;20465;-82
2021/04/29 10:24:35;;;;;;;23.80;20.57;;;11.20;98.30;;;;;;5105402;23;20451;-83
2021/04/29 10:26:40;;;;;;;26.80;20.50;;;11.30;98.30;;;;;;5098162;23;20911;-82
2021/04/29 10:28:46;;;;;;;23.43;20.20;;;11.30;98.30;;;;;;5099744;23;20453;-83
2021/04/29 10:30:48;;;;;;;23.37;20.40;;;11.20;98.30;;;;;;5098932;23;20459;-83